createdAt,value
2023-03-29T00:00:01.736Z,1024.89
2023-03-29T00:16:01.751Z,1024.89
2023-03-29T00:31:01.981Z,1024.96
2023-03-29T00:46:01.846Z,1024.96
2023-03-29T01:00:01.809Z,1024.83
2023-03-29T01:16:01.809Z,1024.62
2023-03-29T01:31:02.013Z,1024.56
2023-03-29T01:46:01.810Z,1024.52
2023-03-29T02:00:01.734Z,1024.39
2023-03-29T02:16:01.828Z,1024.35
2023-03-29T02:31:01.972Z,1024.49
2023-03-29T02:46:01.792Z,1024.42
2023-03-29T03:00:01.810Z,1024.45
2023-03-29T03:16:01.827Z,1024.25
2023-03-29T03:31:02.021Z,1024.12
2023-03-29T03:46:01.849Z,1023.91
2023-03-29T04:00:01.820Z,1023.78
2023-03-29T04:16:02.020Z,1023.88
2023-03-29T04:31:01.955Z,1024.05
2023-03-29T04:46:01.799Z,1023.91
2023-03-29T05:00:01.809Z,1024.22
2023-03-29T05:16:01.779Z,1024.05
2023-03-29T05:31:02.050Z,1024.05
2023-03-29T05:46:01.749Z,1024.05
2023-03-29T06:00:01.780Z,1023.88
2023-03-29T06:16:01.760Z,1023.47
2023-03-29T06:31:02.074Z,1023.67
2023-03-29T06:46:02.801Z,1023.71
2023-03-29T07:00:01.752Z,1023.81
2023-03-29T07:16:01.778Z,1023.61
2023-03-29T07:31:02.152Z,1023.27
2023-03-29T07:46:01.763Z,1023.17
2023-03-29T08:00:01.715Z,1022.93
2023-03-29T08:16:01.684Z,1022.79
2023-03-29T08:31:02.018Z,1022.86
2023-03-29T08:46:01.875Z,1022.52
2023-03-29T09:00:01.858Z,1022.32
2023-03-29T09:16:01.749Z,1022.02
2023-03-29T09:31:01.916Z,1021.71
2023-03-29T09:46:01.977Z,1021.64
2023-03-29T10:00:01.797Z,1021.3
2023-03-29T10:16:01.790Z,1021.14
2023-03-29T10:31:04.329Z,1020.93
2023-03-29T10:46:01.717Z,1020.73
2023-03-29T11:00:01.735Z,1020.49
2023-03-29T11:16:01.785Z,1020.19
2023-03-29T11:31:02.252Z,1020.02
2023-03-29T11:46:04.089Z,1019.81
2023-03-29T12:00:01.790Z,1019.68
2023-03-29T12:16:01.685Z,1019.48
2023-03-29T12:31:01.832Z,1019.31
2023-03-29T12:46:02.093Z,1019.17
2023-03-29T13:00:01.669Z,1018.9
2023-03-29T13:16:02.035Z,1018.87
2023-03-29T13:31:01.840Z,1018.83
2023-03-29T13:46:01.994Z,1018.8
2023-03-29T14:00:01.725Z,1018.66
2023-03-29T14:16:02.033Z,1018.56
2023-03-29T14:31:01.734Z,1018.46
2023-03-29T14:46:02.155Z,1018.22
2023-03-29T15:00:01.775Z,1018.19
2023-03-29T15:16:02.472Z,1018.02
2023-03-29T15:32:41.902Z,1017.85
2023-03-29T15:46:01.790Z,1017.88
2023-03-29T16:00:01.733Z,1017.99
2023-03-29T16:16:01.924Z,1018.05
2023-03-29T16:31:01.687Z,1018.16
2023-03-29T16:46:01.994Z,1018.16
2023-03-29T17:00:01.723Z,1018.05
2023-03-29T17:16:02.206Z,1018.26
2023-03-29T17:31:01.702Z,1018.12
2023-03-29T17:46:02.078Z,1018.43
2023-03-29T18:00:01.685Z,1018.66
2023-03-29T18:16:01.986Z,1018.9
2023-03-29T18:31:01.754Z,1019.14
2023-03-29T18:46:02.093Z,1019.34
2023-03-29T19:00:02.721Z,1019.54
2023-03-29T19:16:02.028Z,1019.68
2023-03-29T19:31:01.709Z,1019.81
2023-03-29T19:46:01.997Z,1019.88
2023-03-29T20:00:01.694Z,1019.85
2023-03-29T20:16:01.713Z,1019.78
2023-03-29T20:31:02.570Z,1019.98
2023-03-29T20:46:01.918Z,1019.98
2023-03-29T21:00:01.676Z,1020.05
2023-03-29T21:16:01.692Z,1020.09
2023-03-29T21:31:01.935Z,1019.95
2023-03-29T21:46:02.569Z,1019.98
2023-03-29T22:00:01.665Z,1019.98
2023-03-29T22:16:01.740Z,1019.81
2023-03-29T22:31:02.022Z,1019.81
2023-03-29T22:46:01.730Z,1019.88
2023-03-29T23:00:01.677Z,1019.98
2023-03-29T23:16:01.834Z,1020.15
2023-03-29T23:31:02.060Z,1020.15
2023-03-29T23:46:01.713Z,1020.25
